sensor_id;sensor_type;location;lat;lon;timestamp;temperature;humidity
1506;DHT22;744;51.436;7.356;2023-05-28T17:58:43;25.90;25.80
1506;DHT22;744;51.436;7.356;2023-05-28T18:01:11;26.70;24.80
1506;DHT22;744;51.436;7.356;2023-05-28T18:03:39;26.50;25.10
1506;DHT22;744;51.436;7.356;2023-05-28T18:06:06;26.30;25.20
1506;DHT22;744;51.436;7.356;2023-05-28T18:08:35;26.10;25.20
1506;DHT22;744;51.436;7.356;2023-05-28T18:11:02;25.90;25.10
1506;DHT22;744;51.436;7.356;2023-05-28T18:13:32;25.70;25.10
1506;DHT22;744;51.436;7.356;2023-05-28T18:16:00;25.60;25.20
1506;DHT22;744;51.436;7.356;2023-05-28T18:18:31;25.50;25.60
1506;DHT22;744;51.436;7.356;2023-05-28T18:20:59;25.50;25.80
1506;DHT22;744;51.436;7.356;2023-05-28T18:23:30;25.40;25.90
1506;DHT22;744;51.436;7.356;2023-05-28T18:25:57;25.30;26.10
1506;DHT22;744;51.436;7.356;2023-05-28T18:28:25;25.30;26.30
1506;DHT22;744;51.436;7.356;2023-05-28T18:30:53;25.20;26.20
1506;DHT22;744;51.436;7.356;2023-05-28T18:33:24;25.10;26.40
1506;DHT22;744;51.436;7.356;2023-05-28T18:35:55;25.10;26.50
1506;DHT22;744;51.436;7.356;2023-05-28T18:38:23;25.00;26.60
1506;DHT22;744;51.436;7.356;2023-05-28T18:40:51;25.00;26.80
1506;DHT22;744;51.436;7.356;2023-05-28T18:43:27;25.00;26.60
1506;DHT22;744;51.436;7.356;2023-05-28T18:45:54;25.00;26.70
1506;DHT22;744;51.436;7.356;2023-05-28T18:48:22;25.00;26.70
1506;DHT22;744;51.436;7.356;2023-05-28T18:50:49;25.00;26.70
1506;DHT22;744;51.436;7.356;2023-05-28T18:53:18;25.00;26.70
1506;DHT22;744;51.436;7.356;2023-05-28T18:55:46;25.10;26.70
1506;DHT22;744;51.436;7.356;2023-05-28T18:58:14;24.90;26.60
1506;DHT22;744;51.436;7.356;2023-05-28T19:00:42;24.90;26.60
1506;DHT22;744;51.436;7.356;2023-05-28T19:03:14;24.80;26.80
1506;DHT22;744;51.436;7.356;2023-05-28T19:05:44;24.80;26.90
1506;DHT22;744;51.436;7.356;2023-05-28T19:08:15;24.70;26.80
1506;DHT22;744;51.436;7.356;2023-05-28T19:10:43;24.60;26.90
1506;DHT22;744;51.436;7.356;2023-05-28T19:16:58;24.60;26.90
1506;DHT22;744;51.436;7.356;2023-05-28T19:19:26;24.50;27.00
1506;DHT22;744;51.436;7.356;2023-05-28T19:21:53;24.50;27.00
1506;DHT22;744;51.436;7.356;2023-05-28T19:24:20;24.40;27.00
1506;DHT22;744;51.436;7.356;2023-05-28T19:26:50;24.50;27.20
1506;DHT22;744;51.436;7.356;2023-05-28T19:29:17;24.40;27.00
1506;DHT22;744;51.436;7.356;2023-05-28T19:31:44;24.40;27.00
1506;DHT22;744;51.436;7.356;2023-05-28T19:34:14;24.40;27.10
1506;DHT22;744;51.436;7.356;2023-05-28T19:36:41;24.30;27.10
1506;DHT22;744;51.436;7.356;2023-05-28T19:39:12;24.20;27.10
1506;DHT22;744;51.436;7.356;2023-05-28T19:41:40;24.00;27.40
1506;DHT22;744;51.436;7.356;2023-05-28T19:44:08;23.90;27.70
1506;DHT22;744;51.436;7.356;2023-05-28T19:46:35;23.70;27.60
1506;DHT22;744;51.436;7.356;2023-05-28T19:49:03;23.60;27.90
1506;DHT22;744;51.436;7.356;2023-05-28T19:55:19;23.40;28.20
1506;DHT22;744;51.436;7.356;2023-05-28T19:57:47;23.30;28.20
1506;DHT22;744;51.436;7.356;2023-05-28T20:00:15;23.40;28.20
1506;DHT22;744;51.436;7.356;2023-05-28T20:02:42;23.30;28.20
1506;DHT22;744;51.436;7.356;2023-05-28T20:05:09;23.30;28.20
1506;DHT22;744;51.436;7.356;2023-05-28T20:07:40;23.20;28.20
1506;DHT22;744;51.436;7.356;2023-05-28T20:10:08;23.30;28.30
1506;DHT22;744;51.436;7.356;2023-05-28T20:12:36;23.30;28.30
1506;DHT22;744;51.436;7.356;2023-05-28T20:15:06;23.30;28.10
1506;DHT22;744;51.436;7.356;2023-05-28T20:17:35;23.20;28.20
1506;DHT22;744;51.436;7.356;2023-05-28T20:20:17;23.10;28.10
1506;DHT22;744;51.436;7.356;2023-05-28T20:22:45;23.00;28.10
1506;DHT22;744;51.436;7.356;2023-05-28T20:25:13;22.80;28.00
1506;DHT22;744;51.436;7.356;2023-05-28T20:27:43;22.80;28.10
1506;DHT22;744;51.436;7.356;2023-05-28T20:30:11;22.70;28.00
1506;DHT22;744;51.436;7.356;2023-05-28T20:32:41;22.70;28.00
1506;DHT22;744;51.436;7.356;2023-05-28T20:35:10;22.60;28.10
1506;DHT22;744;51.436;7.356;2023-05-28T20:37:43;22.50;28.20
1506;DHT22;744;51.436;7.356;2023-05-28T20:40:11;22.50;28.40
1506;DHT22;744;51.436;7.356;2023-05-28T20:42:39;22.50;28.50
1506;DHT22;744;51.436;7.356;2023-05-28T20:45:08;22.40;28.60
1506;DHT22;744;51.436;7.356;2023-05-28T20:47:36;22.30;28.80
1506;DHT22;744;51.436;7.356;2023-05-28T20:53:51;22.40;28.90
1506;DHT22;744;51.436;7.356;2023-05-28T20:56:25;22.30;29.00
1506;DHT22;744;51.436;7.356;2023-05-28T20:58:53;22.10;29.90
1506;DHT22;744;51.436;7.356;2023-05-28T21:01:24;21.90;30.00
1506;DHT22;744;51.436;7.356;2023-05-28T21:03:52;21.70;30.00
1506;DHT22;744;51.436;7.356;2023-05-28T21:06:26;21.50;30.50
1506;DHT22;744;51.436;7.356;2023-05-28T21:08:55;21.50;30.90
1506;DHT22;744;51.436;7.356;2023-05-28T21:11:25;21.40;31.80
1506;DHT22;744;51.436;7.356;2023-05-28T21:13:52;21.30;31.30
1506;DHT22;744;51.436;7.356;2023-05-28T21:20:07;21.20;31.80
1506;DHT22;744;51.436;7.356;2023-05-28T21:22:35;20.90;31.70
1506;DHT22;744;51.436;7.356;2023-05-28T21:25:05;20.90;31.90
1506;DHT22;744;51.436;7.356;2023-05-28T21:27:32;20.80;32.00
1506;DHT22;744;51.436;7.356;2023-05-28T21:30:02;20.80;31.90
1506;DHT22;744;51.436;7.356;2023-05-28T21:32:29;20.80;32.00
1506;DHT22;744;51.436;7.356;2023-05-28T21:34:58;20.70;32.00
1506;DHT22;744;51.436;7.356;2023-05-28T21:37:29;20.60;32.10
1506;DHT22;744;51.436;7.356;2023-05-28T21:39:56;20.50;32.20
1506;DHT22;744;51.436;7.356;2023-05-28T21:42:26;20.40;32.30
1506;DHT22;744;51.436;7.356;2023-05-28T21:44:54;20.40;32.30
1506;DHT22;744;51.436;7.356;2023-05-28T21:47:22;20.40;32.40
1506;DHT22;744;51.436;7.356;2023-05-28T21:49:52;20.30;32.30
1506;DHT22;744;51.436;7.356;2023-05-28T21:52:22;20.50;32.30
1506;DHT22;744;51.436;7.356;2023-05-28T21:54:52;20.50;32.10
1506;DHT22;744;51.436;7.356;2023-05-28T21:57:39;20.50;31.90
1506;DHT22;744;51.436;7.356;2023-05-28T22:00:07;20.50;31.80
1506;DHT22;744;51.436;7.356;2023-05-28T22:02:42;20.40;31.70
1506;DHT22;744;51.436;7.356;2023-05-28T22:05:10;20.60;31.80
1506;DHT22;744;51.436;7.356;2023-05-28T22:07:44;20.60;31.60
1506;DHT22;744;51.436;7.356;2023-05-28T22:10:13;20.70;31.50
1506;DHT22;744;51.436;7.356;2023-05-28T22:12:40;20.70;31.10
1506;DHT22;744;51.436;7.356;2023-05-28T22:15:13;20.80;30.80
1506;DHT22;744;51.436;7.356;2023-05-28T22:17:41;20.80;30.50
1506;DHT22;744;51.436;7.356;2023-05-28T22:20:09;20.80;30.10
1506;DHT22;744;51.436;7.356;2023-05-28T22:22:38;20.80;30.30
1506;DHT22;744;51.436;7.356;2023-05-28T22:25:05;20.70;30.30
1506;DHT22;744;51.436;7.356;2023-05-28T22:27:39;20.80;30.00
1506;DHT22;744;51.436;7.356;2023-05-28T22:30:06;20.90;29.80
1506;DHT22;744;51.436;7.356;2023-05-28T22:32:34;20.90;29.50
1506;DHT22;744;51.436;7.356;2023-05-28T22:35:01;21.00;29.60
1506;DHT22;744;51.436;7.356;2023-05-28T22:37:34;20.90;29.50
1506;DHT22;744;51.436;7.356;2023-05-28T22:40:01;20.90;29.50
1506;DHT22;744;51.436;7.356;2023-05-28T22:42:28;21.00;29.60
1506;DHT22;744;51.436;7.356;2023-05-28T22:44:56;20.90;29.50
1506;DHT22;744;51.436;7.356;2023-05-28T22:51:11;20.80;29.40
1506;DHT22;744;51.436;7.356;2023-05-28T22:53:38;20.50;29.70
1506;DHT22;744;51.436;7.356;2023-05-28T22:56:09;20.00;29.80
1506;DHT22;744;51.436;7.356;2023-05-28T22:58:39;20.10;30.10
1506;DHT22;744;51.436;7.356;2023-05-28T23:01:07;20.00;30.20
1506;DHT22;744;51.436;7.356;2023-05-28T23:03:35;19.90;30.30
1506;DHT22;744;51.436;7.356;2023-05-28T23:06:02;19.90;30.40
1506;DHT22;744;51.436;7.356;2023-05-28T23:08:32;19.90;30.30
1506;DHT22;744;51.436;7.356;2023-05-28T23:10:59;20.00;30.30
1506;DHT22;744;51.436;7.356;2023-05-28T23:13:29;20.00;30.30
1506;DHT22;744;51.436;7.356;2023-05-28T23:15:56;20.00;30.10
1506;DHT22;744;51.436;7.356;2023-05-28T23:18:26;20.10;30.00
1506;DHT22;744;51.436;7.356;2023-05-28T23:20:54;20.10;30.00
1506;DHT22;744;51.436;7.356;2023-05-28T23:23:22;20.00;30.10
1506;DHT22;744;51.436;7.356;2023-05-28T23:25:50;19.80;30.40
1506;DHT22;744;51.436;7.356;2023-05-28T23:28:17;19.60;30.60
1506;DHT22;744;51.436;7.356;2023-05-28T23:30:47;19.60;30.70
1506;DHT22;744;51.436;7.356;2023-05-28T23:33:14;19.60;31.40
1506;DHT22;744;51.436;7.356;2023-05-28T23:35:41;19.60;30.70
1506;DHT22;744;51.436;7.356;2023-05-28T23:38:11;19.60;30.80
1506;DHT22;744;51.436;7.356;2023-05-28T23:44:26;19.60;30.80
1506;DHT22;744;51.436;7.356;2023-05-28T23:46:53;19.50;31.20
1506;DHT22;744;51.436;7.356;2023-05-28T23:49:22;19.50;31.50
1506;DHT22;744;51.436;7.356;2023-05-28T23:55:37;19.30;31.80
1506;DHT22;744;51.436;7.356;2023-05-28T23:58:04;19.10;32.10
